sensor_id;sensor_type;location;lat;lon;timestamp;pressure;altitude;pressure_sealevel;temperature;humidity
41866;BME280;27539;43.222;27.558;2022-08-30T00:00:28;100357.25;;;22.56;100.00
41866;BME280;27539;43.222;27.558;2022-08-30T00:03:12;100350.28;;;22.62;100.00
41866;BME280;27539;43.222;27.558;2022-08-30T00:05:38;100347.75;;;22.43;100.00
41866;BME280;27539;43.222;27.558;2022-08-30T00:08:04;100350.25;;;22.54;100.00
41866;BME280;27539;43.222;27.558;2022-08-30T00:10:30;100347.25;;;22.50;100.00
41866;BME280;27539;43.222;27.558;2022-08-30T00:12:55;100344.41;;;22.59;100.00
41866;BME280;27539;43.222;27.558;2022-08-30T00:15:22;100351.41;;;22.61;100.00
41866;BME280;27539;43.222;27.558;2022-08-30T00:17:47;100341.59;;;22.68;100.00
41866;BME280;27539;43.222;27.558;2022-08-30T00:20:15;100355.28;;;22.65;100.00
41866;BME280;27539;43.222;27.558;2022-08-30T00:22:41;100352.78;;;22.55;100.00
41866;BME280;27539;43.222;27.558;2022-08-30T00:25:07;100343.94;;;22.48;100.00
41866;BME280;27539;43.222;27.558;2022-08-30T00:27:32;100349.09;;;22.55;100.00
41866;BME280;27539;43.222;27.558;2022-08-30T00:29:57;100344.75;;;22.49;100.00
41866;BME280;27539;43.222;27.558;2022-08-30T00:32:23;100346.44;;;22.50;100.00
41866;BME280;27539;43.222;27.558;2022-08-30T00:34:49;100340.25;;;22.56;100.00
41866;BME280;27539;43.222;27.558;2022-08-30T00:37:15;100341.25;;;22.52;100.00
41866;BME280;27539;43.222;27.558;2022-08-30T00:39:40;100347.25;;;22.41;100.00
41866;BME280;27539;43.222;27.558;2022-08-30T00:42:06;100341.34;;;22.12;100.00
41866;BME280;27539;43.222;27.558;2022-08-30T00:44:32;100344.78;;;21.91;100.00
41866;BME280;27539;43.222;27.558;2022-08-30T00:46:57;100350.97;;;21.93;100.00
41866;BME280;27539;43.222;27.558;2022-08-30T00:49:23;100350.91;;;21.67;100.00
41866;BME280;27539;43.222;27.558;2022-08-30T00:51:48;100355.59;;;21.81;100.00
41866;BME280;27539;43.222;27.558;2022-08-30T00:54:14;100345.09;;;21.81;100.00
41866;BME280;27539;43.222;27.558;2022-08-30T00:56:39;100345.19;;;21.58;100.00
41866;BME280;27539;43.222;27.558;2022-08-30T00:59:05;100343.97;;;21.82;100.00
41866;BME280;27539;43.222;27.558;2022-08-30T01:01:31;100345.97;;;21.90;100.00
41866;BME280;27539;43.222;27.558;2022-08-30T01:03:57;100348.44;;;21.92;100.00
41866;BME280;27539;43.222;27.558;2022-08-30T01:06:23;100343.50;;;21.97;100.00
41866;BME280;27539;43.222;27.558;2022-08-30T01:08:50;100339.47;;;21.98;100.00
41866;BME280;27539;43.222;27.558;2022-08-30T01:11:17;100340.47;;;21.85;100.00
41866;BME280;27539;43.222;27.558;2022-08-30T01:13:44;100345.03;;;21.64;100.00
41866;BME280;27539;43.222;27.558;2022-08-30T01:16:11;100345.63;;;21.43;100.00
41866;BME280;27539;43.222;27.558;2022-08-30T01:18:36;100345.53;;;21.57;100.00
41866;BME280;27539;43.222;27.558;2022-08-30T01:21:48;100351.97;;;21.49;100.00
41866;BME280;27539;43.222;27.558;2022-08-30T01:23:49;100347.94;;;21.41;100.00
41866;BME280;27539;43.222;27.558;2022-08-30T01:26:16;100345.34;;;21.31;100.00
41866;BME280;27539;43.222;27.558;2022-08-30T01:28:41;100351.59;;;21.19;100.00
41866;BME280;27539;43.222;27.558;2022-08-30T01:31:08;100357.41;;;21.14;100.00
41866;BME280;27539;43.222;27.558;2022-08-30T01:33:34;100358.94;;;21.20;100.00
41866;BME280;27539;43.222;27.558;2022-08-30T01:36:02;100350.97;;;21.22;100.00
41866;BME280;27539;43.222;27.558;2022-08-30T01:38:50;100353.53;;;21.32;100.00
41866;BME280;27539;43.222;27.558;2022-08-30T01:41:18;100352.78;;;21.18;100.00
41866;BME280;27539;43.222;27.558;2022-08-30T01:43:44;100351.19;;;21.03;100.00
41866;BME280;27539;43.222;27.558;2022-08-30T01:46:10;100355.31;;;20.75;100.00
41866;BME280;27539;43.222;27.558;2022-08-30T01:48:37;100359.03;;;20.84;100.00
41866;BME280;27539;43.222;27.558;2022-08-30T01:51:03;100351.91;;;20.86;100.00
41866;BME280;27539;43.222;27.558;2022-08-30T01:53:28;100346.44;;;20.90;100.00
41866;BME280;27539;43.222;27.558;2022-08-30T01:55:54;100352.03;;;20.81;100.00
41866;BME280;27539;43.222;27.558;2022-08-30T01:58:19;100352.88;;;21.04;100.00
41866;BME280;27539;43.222;27.558;2022-08-30T02:00:44;100352.00;;;21.04;100.00
41866;BME280;27539;43.222;27.558;2022-08-30T02:03:09;100352.63;;;20.69;100.00
41866;BME280;27539;43.222;27.558;2022-08-30T02:05:35;100350.06;;;20.82;100.00
41866;BME280;27539;43.222;27.558;2022-08-30T02:08:00;100356.59;;;20.91;100.00
41866;BME280;27539;43.222;27.558;2022-08-30T02:10:26;100353.88;;;20.63;100.00
41866;BME280;27539;43.222;27.558;2022-08-30T02:12:53;100354.28;;;20.70;100.00
41866;BME280;27539;43.222;27.558;2022-08-30T02:15:18;100348.44;;;20.67;100.00
41866;BME280;27539;43.222;27.558;2022-08-30T02:17:44;100345.69;;;20.76;100.00
41866;BME280;27539;43.222;27.558;2022-08-30T02:20:09;100353.72;;;20.82;100.00
41866;BME280;27539;43.222;27.558;2022-08-30T02:22:35;100348.06;;;20.82;100.00
41866;BME280;27539;43.222;27.558;2022-08-30T02:25:00;100347.09;;;20.87;100.00
41866;BME280;27539;43.222;27.558;2022-08-30T02:27:25;100347.03;;;20.78;100.00
41866;BME280;27539;43.222;27.558;2022-08-30T02:29:51;100349.41;;;20.62;100.00
41866;BME280;27539;43.222;27.558;2022-08-30T02:32:16;100350.72;;;20.28;100.00
41866;BME280;27539;43.222;27.558;2022-08-30T02:34:42;100355.25;;;20.16;100.00
41866;BME280;27539;43.222;27.558;2022-08-30T02:37:08;100349.69;;;20.24;100.00
41866;BME280;27539;43.222;27.558;2022-08-30T02:39:33;100359.59;;;20.36;100.00
41866;BME280;27539;43.222;27.558;2022-08-30T02:41:59;100357.00;;;20.39;100.00
41866;BME280;27539;43.222;27.558;2022-08-30T02:44:24;100366.25;;;20.54;100.00
41866;BME280;27539;43.222;27.558;2022-08-30T02:46:49;100370.97;;;20.58;100.00
41866;BME280;27539;43.222;27.558;2022-08-30T02:49:14;100373.78;;;20.58;100.00
41866;BME280;27539;43.222;27.558;2022-08-30T02:51:40;100368.78;;;20.41;100.00
41866;BME280;27539;43.222;27.558;2022-08-30T02:54:05;100371.34;;;20.29;100.00
41866;BME280;27539;43.222;27.558;2022-08-30T02:56:30;100370.66;;;19.96;100.00
41866;BME280;27539;43.222;27.558;2022-08-30T02:58:56;100378.50;;;19.85;100.00
41866;BME280;27539;43.222;27.558;2022-08-30T03:01:21;100371.78;;;20.08;100.00
41866;BME280;27539;43.222;27.558;2022-08-30T03:03:47;100374.66;;;20.31;100.00
41866;BME280;27539;43.222;27.558;2022-08-30T03:06:12;100379.38;;;20.36;100.00
41866;BME280;27539;43.222;27.558;2022-08-30T03:08:38;100380.03;;;20.33;100.00
41866;BME280;27539;43.222;27.558;2022-08-30T03:11:03;100379.94;;;20.10;100.00
41866;BME280;27539;43.222;27.558;2022-08-30T03:13:29;100387.66;;;20.18;100.00
41866;BME280;27539;43.222;27.558;2022-08-30T03:15:54;100375.97;;;20.11;100.00
41866;BME280;27539;43.222;27.558;2022-08-30T03:18:20;100384.78;;;20.10;100.00
41866;BME280;27539;43.222;27.558;2022-08-30T03:20:46;100383.72;;;20.05;100.00
41866;BME280;27539;43.222;27.558;2022-08-30T03:23:12;100378.25;;;20.23;100.00
41866;BME280;27539;43.222;27.558;2022-08-30T03:25:37;100383.47;;;20.29;100.00
41866;BME280;27539;43.222;27.558;2022-08-30T03:28:03;100382.97;;;20.14;100.00
41866;BME280;27539;43.222;27.558;2022-08-30T03:30:29;100390.00;;;19.89;100.00
41866;BME280;27539;43.222;27.558;2022-08-30T03:32:55;100391.69;;;19.90;100.00
41866;BME280;27539;43.222;27.558;2022-08-30T03:35:20;100389.47;;;20.00;100.00
41866;BME280;27539;43.222;27.558;2022-08-30T03:37:45;100388.19;;;20.20;100.00
41866;BME280;27539;43.222;27.558;2022-08-30T03:40:11;100387.56;;;20.23;100.00
41866;BME280;27539;43.222;27.558;2022-08-30T03:42:37;100391.44;;;20.27;100.00
41866;BME280;27539;43.222;27.558;2022-08-30T03:45:03;100384.34;;;20.02;100.00
41866;BME280;27539;43.222;27.558;2022-08-30T03:47:28;100389.38;;;19.78;100.00
41866;BME280;27539;43.222;27.558;2022-08-30T03:49:54;100397.75;;;19.97;100.00
41866;BME280;27539;43.222;27.558;2022-08-30T03:52:19;100399.41;;;20.12;100.00
41866;BME280;27539;43.222;27.558;2022-08-30T03:54:45;100395.00;;;20.19;100.00
41866;BME280;27539;43.222;27.558;2022-08-30T03:57:10;100405.25;;;20.29;100.00
41866;BME280;27539;43.222;27.558;2022-08-30T03:59:35;100399.06;;;20.27;100.00
41866;BME280;27539;43.222;27.558;2022-08-30T04:02:01;100398.66;;;20.20;100.00
41866;BME280;27539;43.222;27.558;2022-08-30T04:04:26;100403.91;;;20.13;100.00
41866;BME280;27539;43.222;27.558;2022-08-30T04:06:52;100415.00;;;20.09;100.00
41866;BME280;27539;43.222;27.558;2022-08-30T04:09:17;100410.78;;;20.20;100.00
41866;BME280;27539;43.222;27.558;2022-08-30T04:11:43;100423.69;;;19.99;100.00
41866;BME280;27539;43.222;27.558;2022-08-30T04:14:08;100419.09;;;19.89;100.00
41866;BME280;27539;43.222;27.558;2022-08-30T04:16:34;100424.72;;;19.89;100.00
41866;BME280;27539;43.222;27.558;2022-08-30T04:18:59;100417.50;;;20.11;100.00
41866;BME280;27539;43.222;27.558;2022-08-30T04:21:25;100424.56;;;20.36;100.00
41866;BME280;27539;43.222;27.558;2022-08-30T04:23:50;100424.69;;;20.31;100.00
41866;BME280;27539;43.222;27.558;2022-08-30T04:26:16;100423.03;;;20.29;100.00
41866;BME280;27539;43.222;27.558;2022-08-30T04:28:41;100430.47;;;20.25;100.00
41866;BME280;27539;43.222;27.558;2022-08-30T04:31:10;100442.69;;;20.21;100.00
41866;BME280;27539;43.222;27.558;2022-08-30T04:33:36;100430.78;;;20.24;100.00
41866;BME280;27539;43.222;27.558;2022-08-30T04:36:02;100437.03;;;20.35;100.00
41866;BME280;27539;43.222;27.558;2022-08-30T04:38:29;100441.19;;;20.65;100.00
41866;BME280;27539;43.222;27.558;2022-08-30T04:40:54;100438.16;;;20.98;100.00
41866;BME280;27539;43.222;27.558;2022-08-30T04:43:20;100447.69;;;21.24;100.00
41866;BME280;27539;43.222;27.558;2022-08-30T04:45:45;100450.97;;;21.40;100.00
41866;BME280;27539;43.222;27.558;2022-08-30T04:48:10;100455.53;;;21.50;100.00
41866;BME280;27539;43.222;27.558;2022-08-30T04:50:36;100454.47;;;21.68;100.00
41866;BME280;27539;43.222;27.558;2022-08-30T04:53:01;100458.63;;;21.62;100.00
41866;BME280;27539;43.222;27.558;2022-08-30T04:55:26;100470.22;;;21.83;100.00
41866;BME280;27539;43.222;27.558;2022-08-30T04:57:52;100461.66;;;22.06;100.00
41866;BME280;27539;43.222;27.558;2022-08-30T05:00:18;100458.91;;;22.23;100.00
41866;BME280;27539;43.222;27.558;2022-08-30T05:02:45;100470.09;;;22.37;100.00
41866;BME280;27539;43.222;27.558;2022-08-30T05:05:10;100465.19;;;22.60;100.00
41866;BME280;27539;43.222;27.558;2022-08-30T05:07:54;100469.19;;;22.76;100.00
41866;BME280;27539;43.222;27.558;2022-08-30T05:10:19;100468.09;;;23.03;100.00
41866;BME280;27539;43.222;27.558;2022-08-30T05:12:45;100472.25;;;23.23;100.00
41866;BME280;27539;43.222;27.558;2022-08-30T05:15:10;100481.59;;;23.33;100.00
41866;BME280;27539;43.222;27.558;2022-08-30T05:17:38;100478.56;;;23.46;100.00
41866;BME280;27539;43.222;27.558;2022-08-30T05:20:07;100473.88;;;23.42;100.00
41866;BME280;27539;43.222;27.558;2022-08-30T05:22:37;100479.38;;;23.56;100.00
41866;BME280;27539;43.222;27.558;2022-08-30T05:25:04;100477.88;;;23.76;100.00
41866;BME280;27539;43.222;27.558;2022-08-30T05:27:30;100469.47;;;23.88;100.00
41866;BME280;27539;43.222;27.558;2022-08-30T05:29:55;100479.97;;;23.96;100.00
41866;BME280;27539;43.222;27.558;2022-08-30T05:32:21;100482.38;;;24.24;100.00
41866;BME280;27539;43.222;27.558;2022-08-30T05:34:46;100487.28;;;24.44;100.00
41866;BME280;27539;43.222;27.558;2022-08-30T05:37:12;100476.84;;;24.57;100.00
41866;BME280;27539;43.222;27.558;2022-08-30T05:39:37;100474.94;;;24.70;100.00
41866;BME280;27539;43.222;27.558;2022-08-30T05:42:02;100469.06;;;24.96;100.00
41866;BME280;27539;43.222;27.558;2022-08-30T05:44:28;100468.78;;;25.10;100.00
41866;BME280;27539;43.222;27.558;2022-08-30T05:46:53;100470.72;;;25.18;100.00
41866;BME280;27539;43.222;27.558;2022-08-30T05:49:18;100468.03;;;25.21;100.00
41866;BME280;27539;43.222;27.558;2022-08-30T05:51:44;100460.28;;;25.43;100.00
41866;BME280;27539;43.222;27.558;2022-08-30T05:54:10;100457.16;;;25.69;100.00
41866;BME280;27539;43.222;27.558;2022-08-30T05:56:36;100459.09;;;25.77;100.00
41866;BME280;27539;43.222;27.558;2022-08-30T05:59:03;100455.19;;;25.82;100.00
41866;BME280;27539;43.222;27.558;2022-08-30T06:01:30;100456.00;;;25.82;100.00
41866;BME280;27539;43.222;27.558;2022-08-30T06:03:57;100456.78;;;26.04;100.00
41866;BME280;27539;43.222;27.558;2022-08-30T06:06:24;100454.19;;;26.23;100.00
41866;BME280;27539;43.222;27.558;2022-08-30T06:08:50;100453.72;;;26.46;100.00
41866;BME280;27539;43.222;27.558;2022-08-30T06:11:16;100460.47;;;26.66;100.00
41866;BME280;27539;43.222;27.558;2022-08-30T06:13:43;100457.09;;;26.88;100.00
41866;BME280;27539;43.222;27.558;2022-08-30T06:16:13;100456.41;;;26.91;100.00
41866;BME280;27539;43.222;27.558;2022-08-30T06:18:38;100461.47;;;26.98;100.00
41866;BME280;27539;43.222;27.558;2022-08-30T06:21:04;100455.50;;;27.03;100.00
41866;BME280;27539;43.222;27.558;2022-08-30T06:23:29;100457.75;;;27.22;100.00
41866;BME280;27539;43.222;27.558;2022-08-30T06:25:55;100460.38;;;27.43;100.00
41866;BME280;27539;43.222;27.558;2022-08-30T06:28:20;100463.25;;;27.43;100.00
41866;BME280;27539;43.222;27.558;2022-08-30T06:30:45;100462.38;;;27.55;100.00
41866;BME280;27539;43.222;27.558;2022-08-30T06:33:11;100465.56;;;27.53;100.00
41866;BME280;27539;43.222;27.558;2022-08-30T06:35:37;100466.91;;;27.72;100.00
41866;BME280;27539;43.222;27.558;2022-08-30T06:38:02;100465.66;;;27.85;100.00
41866;BME280;27539;43.222;27.558;2022-08-30T06:40:27;100458.09;;;28.09;100.00
41866;BME280;27539;43.222;27.558;2022-08-30T06:42:53;100455.91;;;28.18;99.96
41866;BME280;27539;43.222;27.558;2022-08-30T06:45:19;100466.22;;;28.38;98.68
41866;BME280;27539;43.222;27.558;2022-08-30T06:47:44;100468.19;;;28.50;99.24
41866;BME280;27539;43.222;27.558;2022-08-30T06:50:10;100465.56;;;28.61;93.59
41866;BME280;27539;43.222;27.558;2022-08-30T06:52:36;100467.50;;;28.73;92.15
41866;BME280;27539;43.222;27.558;2022-08-30T06:55:01;100464.75;;;28.96;91.01
41866;BME280;27539;43.222;27.558;2022-08-30T06:57:27;100457.47;;;29.18;90.04
41866;BME280;27539;43.222;27.558;2022-08-30T06:59:55;100456.81;;;29.24;90.27
41866;BME280;27539;43.222;27.558;2022-08-30T07:02:21;100456.22;;;29.35;87.75
41866;BME280;27539;43.222;27.558;2022-08-30T07:04:46;100454.47;;;29.49;81.93
41866;BME280;27539;43.222;27.558;2022-08-30T07:07:12;100455.44;;;29.38;79.69
41866;BME280;27539;43.222;27.558;2022-08-30T07:09:38;100467.50;;;29.27;81.06
41866;BME280;27539;43.222;27.558;2022-08-30T07:12:07;100458.63;;;29.33;80.23
41866;BME280;27539;43.222;27.558;2022-08-30T07:14:33;100454.00;;;29.47;79.10
41866;BME280;27539;43.222;27.558;2022-08-30T07:16:58;100456.41;;;29.45;80.48
41866;BME280;27539;43.222;27.558;2022-08-30T07:19:23;100456.94;;;29.70;76.08
41866;BME280;27539;43.222;27.558;2022-08-30T07:21:48;100453.56;;;29.88;76.93
41866;BME280;27539;43.222;27.558;2022-08-30T07:24:14;100454.53;;;29.73;71.06
41866;BME280;27539;43.222;27.558;2022-08-30T07:26:44;100447.38;;;29.86;74.52
41866;BME280;27539;43.222;27.558;2022-08-30T07:29:13;100451.16;;;29.90;71.87
41866;BME280;27539;43.222;27.558;2022-08-30T07:31:38;100445.75;;;30.08;69.68
41866;BME280;27539;43.222;27.558;2022-08-30T07:34:04;100444.50;;;30.09;63.10
41866;BME280;27539;43.222;27.558;2022-08-30T07:36:30;100449.75;;;30.26;57.85
41866;BME280;27539;43.222;27.558;2022-08-30T07:38:56;100446.91;;;30.53;59.99
41866;BME280;27539;43.222;27.558;2022-08-30T07:41:29;100449.84;;;30.30;58.00
41866;BME280;27539;43.222;27.558;2022-08-30T07:43:54;100440.50;;;30.13;62.12
41866;BME280;27539;43.222;27.558;2022-08-30T07:46:20;100445.03;;;30.64;64.01
41866;BME280;27539;43.222;27.558;2022-08-30T07:48:46;100439.84;;;31.00;59.81
41866;BME280;27539;43.222;27.558;2022-08-30T07:51:12;100443.47;;;31.27;59.96
41866;BME280;27539;43.222;27.558;2022-08-30T07:53:38;100437.47;;;31.39;51.11
41866;BME280;27539;43.222;27.558;2022-08-30T07:56:04;100437.63;;;31.50;52.06
41866;BME280;27539;43.222;27.558;2022-08-30T07:58:29;100444.78;;;31.67;54.70
41866;BME280;27539;43.222;27.558;2022-08-30T08:00:54;100437.56;;;31.84;54.88
41866;BME280;27539;43.222;27.558;2022-08-30T08:03:23;100430.44;;;31.71;52.41
41866;BME280;27539;43.222;27.558;2022-08-30T08:05:48;100422.41;;;31.50;52.92
41866;BME280;27539;43.222;27.558;2022-08-30T08:08:14;100433.06;;;31.86;55.67
41866;BME280;27539;43.222;27.558;2022-08-30T08:10:40;100432.25;;;31.90;51.88
41866;BME280;27539;43.222;27.558;2022-08-30T08:13:06;100430.81;;;32.06;50.17
41866;BME280;27539;43.222;27.558;2022-08-30T08:15:31;100431.03;;;32.32;51.66
41866;BME280;27539;43.222;27.558;2022-08-30T08:17:56;100425.91;;;32.59;52.02
41866;BME280;27539;43.222;27.558;2022-08-30T08:20:22;100429.19;;;32.09;49.34
41866;BME280;27539;43.222;27.558;2022-08-30T08:22:47;100420.19;;;32.18;49.73
41866;BME280;27539;43.222;27.558;2022-08-30T08:25:13;100418.47;;;32.06;51.07
41866;BME280;27539;43.222;27.558;2022-08-30T08:27:39;100418.56;;;32.13;48.07
41866;BME280;27539;43.222;27.558;2022-08-30T08:30:04;100407.94;;;32.24;52.15
41866;BME280;27539;43.222;27.558;2022-08-30T08:32:30;100415.06;;;32.41;49.64
41866;BME280;27539;43.222;27.558;2022-08-30T08:34:55;100402.44;;;32.60;49.92
41866;BME280;27539;43.222;27.558;2022-08-30T08:37:20;100400.03;;;32.69;49.01
41866;BME280;27539;43.222;27.558;2022-08-30T08:39:46;100398.50;;;32.90;48.93
41866;BME280;27539;43.222;27.558;2022-08-30T08:42:14;100402.56;;;32.78;47.85
41866;BME280;27539;43.222;27.558;2022-08-30T08:49:46;100383.66;;;32.81;48.74
41866;BME280;27539;43.222;27.558;2022-08-30T08:52:17;100397.41;;;33.12;48.10
41866;BME280;27539;43.222;27.558;2022-08-30T08:55:07;100386.41;;;33.54;45.07
41866;BME280;27539;43.222;27.558;2022-08-30T08:57:34;100388.94;;;33.88;44.19
41866;BME280;27539;43.222;27.558;2022-08-30T09:00:00;100394.31;;;33.93;43.55
41866;BME280;27539;43.222;27.558;2022-08-30T09:02:29;100391.41;;;33.82;42.20
41866;BME280;27539;43.222;27.558;2022-08-30T09:04:59;100393.91;;;33.94;43.20
41866;BME280;27539;43.222;27.558;2022-08-30T09:07:26;100391.88;;;34.27;44.42
41866;BME280;27539;43.222;27.558;2022-08-30T09:09:53;100381.53;;;34.05;41.23
41866;BME280;27539;43.222;27.558;2022-08-30T09:12:20;100389.00;;;34.24;44.98
41866;BME280;27539;43.222;27.558;2022-08-30T09:14:47;100382.38;;;34.19;40.92
41866;BME280;27539;43.222;27.558;2022-08-30T09:17:17;100370.38;;;34.03;42.36
41866;BME280;27539;43.222;27.558;2022-08-30T09:19:44;100370.81;;;34.23;42.37
41866;BME280;27539;43.222;27.558;2022-08-30T09:22:14;100366.28;;;34.29;41.20
41866;BME280;27539;43.222;27.558;2022-08-30T09:24:44;100361.75;;;34.25;40.21
41866;BME280;27539;43.222;27.558;2022-08-30T09:27:53;100367.50;;;34.28;39.81
41866;BME280;27539;43.222;27.558;2022-08-30T09:30:00;100362.16;;;34.37;39.71
41866;BME280;27539;43.222;27.558;2022-08-30T09:32:28;100355.06;;;34.71;40.33
41866;BME280;27539;43.222;27.558;2022-08-30T09:34:54;100361.53;;;35.14;40.89
41866;BME280;27539;43.222;27.558;2022-08-30T09:38:02;100365.19;;;35.25;38.92
41866;BME280;27539;43.222;27.558;2022-08-30T09:40:09;100360.66;;;35.21;38.16
41866;BME280;27539;43.222;27.558;2022-08-30T09:42:36;100353.25;;;35.20;37.09
41866;BME280;27539;43.222;27.558;2022-08-30T09:45:03;100358.53;;;35.28;38.23
41866;BME280;27539;43.222;27.558;2022-08-30T09:47:36;100354.63;;;35.64;38.47
41866;BME280;27539;43.222;27.558;2022-08-30T09:53:29;100353.72;;;35.04;36.15
41866;BME280;27539;43.222;27.558;2022-08-30T09:55:25;100358.97;;;35.27;37.00
41866;BME280;27539;43.222;27.558;2022-08-30T09:58:03;100352.09;;;34.89;36.56
41866;BME280;27539;43.222;27.558;2022-08-30T10:00:33;100346.28;;;34.99;35.97
41866;BME280;27539;43.222;27.558;2022-08-30T10:03:06;100345.00;;;35.15;35.31
41866;BME280;27539;43.222;27.558;2022-08-30T10:10:38;100342.19;;;35.70;38.81
41866;BME280;27539;43.222;27.558;2022-08-30T10:15:43;100341.72;;;35.76;38.69
41866;BME280;27539;43.222;27.558;2022-08-30T10:23:18;100332.69;;;36.19;36.61
41866;BME280;27539;43.222;27.558;2022-08-30T10:25:49;100333.34;;;36.33;37.04
41866;BME280;27539;43.222;27.558;2022-08-30T10:30:46;100328.56;;;36.58;35.93
41866;BME280;27539;43.222;27.558;2022-08-30T10:33:23;100321.66;;;36.44;37.02
41866;BME280;27539;43.222;27.558;2022-08-30T10:35:52;100326.34;;;36.31;38.65
41866;BME280;27539;43.222;27.558;2022-08-30T10:41:06;100329.63;;;35.88;40.48
41866;BME280;27539;43.222;27.558;2022-08-30T10:46:05;100324.94;;;36.08;37.99
41866;BME280;27539;43.222;27.558;2022-08-30T10:48:36;100316.53;;;36.21;38.89
41866;BME280;27539;43.222;27.558;2022-08-30T10:51:03;100314.69;;;36.38;40.13
41866;BME280;27539;43.222;27.558;2022-08-30T10:53:52;100314.94;;;36.54;38.88
41866;BME280;27539;43.222;27.558;2022-08-30T10:56:19;100306.47;;;36.71;38.82
41866;BME280;27539;43.222;27.558;2022-08-30T10:58:47;100305.72;;;36.63;38.03
41866;BME280;27539;43.222;27.558;2022-08-30T11:14:21;100289.28;;;37.18;36.47
41866;BME280;27539;43.222;27.558;2022-08-30T11:16:48;100289.06;;;37.02;37.60
41866;BME280;27539;43.222;27.558;2022-08-30T11:21:40;100280.19;;;37.16;37.61
41866;BME280;27539;43.222;27.558;2022-08-30T11:24:10;100277.09;;;36.69;36.69
41866;BME280;27539;43.222;27.558;2022-08-30T11:29:57;100275.53;;;36.91;39.49
41866;BME280;27539;43.222;27.558;2022-08-30T11:37:10;100265.13;;;36.97;38.59
41866;BME280;27539;43.222;27.558;2022-08-30T11:39:55;100260.94;;;36.98;38.35
41866;BME280;27539;43.222;27.558;2022-08-30T11:42:25;100259.38;;;36.63;39.81
41866;BME280;27539;43.222;27.558;2022-08-30T11:44:51;100260.41;;;36.80;41.00
41866;BME280;27539;43.222;27.558;2022-08-30T11:47:37;100266.03;;;36.91;41.30
41866;BME280;27539;43.222;27.558;2022-08-30T11:50:06;100260.16;;;36.67;41.04
41866;BME280;27539;43.222;27.558;2022-08-30T11:52:36;100267.19;;;36.32;41.64
41866;BME280;27539;43.222;27.558;2022-08-30T11:57:56;100256.22;;;36.12;42.48
41866;BME280;27539;43.222;27.558;2022-08-30T12:00:37;100253.44;;;36.02;43.52
41866;BME280;27539;43.222;27.558;2022-08-30T12:08:07;100258.38;;;36.01;42.23
41866;BME280;27539;43.222;27.558;2022-08-30T12:13:01;100267.94;;;35.49;42.25
41866;BME280;27539;43.222;27.558;2022-08-30T12:15:50;100259.41;;;35.32;43.02
41866;BME280;27539;43.222;27.558;2022-08-30T12:18:13;100253.53;;;35.39;43.18
41866;BME280;27539;43.222;27.558;2022-08-30T12:20:53;100252.00;;;35.27;43.46
41866;BME280;27539;43.222;27.558;2022-08-30T12:23:20;100250.03;;;35.10;45.09
41866;BME280;27539;43.222;27.558;2022-08-30T12:25:47;100255.75;;;35.24;43.49
41866;BME280;27539;43.222;27.558;2022-08-30T12:28:21;100250.31;;;35.30;43.73
41866;BME280;27539;43.222;27.558;2022-08-30T12:30:46;100248.59;;;35.36;43.65
41866;BME280;27539;43.222;27.558;2022-08-30T12:33:12;100251.94;;;35.34;43.72
41866;BME280;27539;43.222;27.558;2022-08-30T12:35:38;100245.41;;;35.23;44.06
41866;BME280;27539;43.222;27.558;2022-08-30T12:38:05;100240.47;;;35.16;44.92
41866;BME280;27539;43.222;27.558;2022-08-30T12:40:31;100247.25;;;35.51;44.72
41866;BME280;27539;43.222;27.558;2022-08-30T12:43:03;100244.94;;;35.32;43.14
41866;BME280;27539;43.222;27.558;2022-08-30T12:45:50;100242.66;;;35.54;43.99
41866;BME280;27539;43.222;27.558;2022-08-30T12:48:15;100245.88;;;35.66;43.46
41866;BME280;27539;43.222;27.558;2022-08-30T12:50:43;100236.16;;;35.42;43.43
41866;BME280;27539;43.222;27.558;2022-08-30T12:53:12;100239.16;;;35.32;44.57
41866;BME280;27539;43.222;27.558;2022-08-30T12:55:49;100238.75;;;35.26;44.40
41866;BME280;27539;43.222;27.558;2022-08-30T12:58:15;100234.84;;;34.95;45.09
41866;BME280;27539;43.222;27.558;2022-08-30T13:00:42;100231.56;;;34.89;47.13
41866;BME280;27539;43.222;27.558;2022-08-30T13:03:28;100235.31;;;34.82;46.42
41866;BME280;27539;43.222;27.558;2022-08-30T13:05:54;100222.94;;;34.82;47.19
41866;BME280;27539;43.222;27.558;2022-08-30T13:15:51;100219.84;;;34.37;50.71
41866;BME280;27539;43.222;27.558;2022-08-30T13:18:18;100217.44;;;34.21;52.37
41866;BME280;27539;43.222;27.558;2022-08-30T13:20:48;100222.75;;;34.30;49.54
41866;BME280;27539;43.222;27.558;2022-08-30T13:23:20;100219.00;;;34.33;49.93
41866;BME280;27539;43.222;27.558;2022-08-30T13:25:46;100220.16;;;34.64;48.36
41866;BME280;27539;43.222;27.558;2022-08-30T13:28:11;100211.88;;;34.70;45.01
41866;BME280;27539;43.222;27.558;2022-08-30T13:30:36;100223.03;;;34.53;43.44
41866;BME280;27539;43.222;27.558;2022-08-30T13:33:02;100223.56;;;34.30;41.98
41866;BME280;27539;43.222;27.558;2022-08-30T13:35:27;100204.59;;;34.26;39.94
41866;BME280;27539;43.222;27.558;2022-08-30T13:37:53;100213.66;;;34.28;41.91
41866;BME280;27539;43.222;27.558;2022-08-30T13:40:19;100209.06;;;34.41;46.01
41866;BME280;27539;43.222;27.558;2022-08-30T13:42:45;100210.84;;;34.10;46.66
41866;BME280;27539;43.222;27.558;2022-08-30T13:45:11;100203.78;;;34.25;47.18